COB4 weather

Orangeville / Brundle Field
Ontario, Canada

Public forecast

Using degrees Celsius for public forecast. Weather courtesy of forecast.io.

Closest aviation weather report (METAR) to Orangeville / Brundle Field

Closest report is Waterloo Airport, 26.3 nm (48.7 km) SSW. Retrieved 2019/10/22 10:13 UTC (28 minutes ago):

CYKF 221013Z AUTO 16009G15KT 9SM BKN006 OVC012 14/14 A2970 RMK SLP059 DENSITY ALT 1400FT

Closest aviation forecast (TAF) to Orangeville / Brundle Field

Closest forecast is Waterloo Airport, 26.3 nm (48.7 km) SSW. Retrieved 2019/10/22 08:39 UTC (2 hours ago):

TAF CYKF 220738Z 2208/2220 15010KT P6SM -RA BKN012 OVC100 TEMPO 2208/2210 4SM -RA BR BKN008 OVC015 PROB30 2208/2210 21/2SM RA BR OVC005 FM221000 18012G22KT 11/2SM -RA BR OVC005 TEMPO 2210/2215 5SM -RA BR OVC010 BECMG 2212/2214 20012G22KT FM221800 23015G25KT P6SM BKN025 TEMPO 2218/2220 P6SM -SHRA RMK FCST BASED ON AUTO OBS NXT FCST BY 221400Z